createdAt,value
2019-05-29T00:01:18.563Z,16.30
2019-05-29T00:11:20.834Z,16.30
2019-05-29T00:21:26.156Z,16.30
2019-05-29T00:31:31.684Z,16.30
2019-05-29T00:41:37.291Z,16.20
2019-05-29T00:51:42.671Z,16.10
2019-05-29T01:01:48.045Z,16.00
2019-05-29T01:11:53.436Z,15.90
2019-05-29T01:21:58.867Z,15.80
2019-05-29T01:32:04.238Z,15.90
2019-05-29T01:42:09.768Z,15.80
2019-05-29T01:52:15.492Z,15.80
2019-05-29T02:02:21.979Z,15.70
2019-05-29T02:12:27.849Z,15.60
2019-05-29T02:22:33.208Z,15.60
2019-05-29T02:32:38.567Z,15.60
2019-05-29T02:42:43.885Z,15.50
2019-05-29T02:52:49.191Z,15.50
2019-05-29T03:02:55.022Z,15.40
2019-05-29T03:13:00.360Z,15.40
2019-05-29T03:23:05.767Z,15.20
2019-05-29T03:33:11.075Z,15.20
2019-05-29T03:43:16.386Z,15.10
2019-05-29T03:53:22.048Z,15.10
2019-05-29T04:03:28.848Z,15.10
2019-05-29T04:13:35.995Z,15.10
2019-05-29T04:23:42.938Z,15.10
2019-05-29T04:33:48.207Z,15.00
2019-05-29T04:43:56.975Z,15.00
2019-05-29T04:54:00.565Z,14.80
2019-05-29T05:04:05.823Z,14.70
2019-05-29T05:14:11.450Z,14.70
2019-05-29T05:24:16.690Z,14.70
2019-05-29T05:34:21.943Z,14.70
2019-05-29T05:44:27.416Z,14.60
2019-05-29T05:54:33.391Z,14.60
2019-05-29T06:04:40.037Z,14.60
2019-05-29T06:14:45.508Z,14.70
2019-05-29T06:24:50.801Z,14.70
2019-05-29T06:34:56.071Z,14.60
2019-05-29T06:45:02.221Z,14.80
2019-05-29T06:55:08.859Z,15.00
2019-05-29T07:05:14.423Z,15.10
2019-05-29T07:15:19.729Z,15.20
2019-05-29T07:25:25.111Z,15.40
2019-05-29T07:35:30.460Z,15.60
2019-05-29T07:45:35.740Z,15.60
2019-05-29T07:55:41.038Z,15.70
2019-05-29T08:05:50.999Z,16.00
2019-05-29T08:16:02.326Z,16.40
2019-05-29T08:26:00.598Z,16.60
2019-05-29T08:36:06.028Z,16.60
2019-05-29T08:46:11.362Z,16.80
2019-05-29T08:56:17.460Z,17.10
2019-05-29T09:06:23.538Z,17.20
2019-05-29T09:16:28.950Z,17.30
2019-05-29T09:26:34.263Z,17.50
2019-05-29T09:36:39.526Z,17.80
2019-05-29T09:46:44.835Z,18.00
2019-05-29T09:56:50.204Z,18.20
2019-05-29T10:06:56.080Z,18.30
2019-05-29T10:17:09.159Z,18.50
2019-05-29T10:27:09.859Z,18.80
2019-05-29T10:37:18.076Z,19.90
2019-05-29T10:47:22.355Z,21.20
2019-05-29T10:57:27.658Z,22.50
2019-05-29T11:07:32.954Z,23.50
2019-05-29T11:17:38.275Z,24.20
2019-05-29T11:27:43.904Z,24.80
2019-05-29T11:37:50.392Z,25.50
2019-05-29T11:47:57.338Z,26.00
2019-05-29T11:58:03.280Z,26.40
2019-05-29T12:08:08.627Z,26.50
2019-05-29T12:18:23.614Z,26.60
2019-05-29T12:28:21.350Z,26.50
2019-05-29T12:38:26.907Z,26.60
2019-05-29T12:48:32.175Z,25.60
2019-05-29T12:58:37.490Z,26.00
2019-05-29T13:08:42.787Z,26.40
2019-05-29T13:18:48.103Z,26.60
2019-05-29T13:28:53.373Z,25.90
2019-05-29T13:39:00.109Z,25.70
2019-05-29T13:49:07.009Z,25.40
2019-05-29T13:59:12.654Z,24.70
2019-05-29T14:09:18.062Z,24.70
2019-05-29T14:19:23.411Z,24.50
2019-05-29T14:29:28.998Z,23.80
2019-05-29T14:39:34.282Z,23.80
2019-05-29T14:49:39.833Z,23.80
2019-05-29T14:59:45.241Z,23.80
2019-05-29T15:09:50.921Z,23.70
2019-05-29T15:19:56.272Z,23.60
2019-05-29T15:30:01.587Z,23.40
2019-05-29T15:40:08.790Z,23.00
2019-05-29T15:50:16.103Z,23.80
2019-05-29T16:00:21.591Z,23.50
2019-05-29T16:10:27.003Z,23.30
2019-05-29T16:20:32.393Z,22.90
2019-05-29T16:30:37.681Z,22.70
2019-05-29T16:40:43.195Z,22.70
2019-05-29T16:50:48.478Z,22.40
2019-05-29T17:00:54.078Z,22.00
2019-05-29T17:10:59.353Z,22.10
2019-05-29T17:21:04.741Z,22.00
2019-05-29T17:31:10.084Z,22.10
2019-05-29T17:41:17.183Z,22.00
2019-05-29T17:51:23.777Z,21.60
2019-05-29T18:01:30.852Z,21.40
2019-05-29T18:11:36.423Z,21.20
2019-05-29T18:21:41.776Z,20.90
2019-05-29T18:31:47.055Z,20.60
2019-05-29T18:41:52.908Z,20.30
2019-05-29T18:52:00.323Z,20.00
2019-05-29T19:02:05.327Z,19.70
2019-05-29T19:12:10.964Z,19.40
2019-05-29T19:22:16.429Z,19.10
2019-05-29T19:32:23.231Z,18.50
2019-05-29T19:42:28.617Z,18.00
2019-05-29T19:52:33.937Z,17.60
2019-05-29T20:02:39.565Z,17.20
2019-05-29T20:12:44.843Z,16.80
2019-05-29T20:22:50.082Z,16.50
2019-05-29T20:32:55.317Z,16.20
2019-05-29T20:43:00.558Z,15.90
2019-05-29T20:53:06.538Z,15.50
2019-05-29T21:03:12.019Z,15.20
2019-05-29T21:13:17.499Z,14.90
2019-05-29T21:23:22.768Z,14.70
2019-05-29T21:33:28.104Z,14.50
2019-05-29T21:43:33.337Z,14.30
2019-05-29T21:53:39.254Z,14.20
2019-05-29T22:03:46.465Z,14.00
2019-05-29T22:13:52.374Z,13.70
2019-05-29T22:23:57.863Z,13.50
2019-05-29T22:34:03.140Z,13.30
2019-05-29T22:44:08.496Z,13.20
2019-05-29T22:54:13.818Z,13.00
2019-05-29T23:04:19.114Z,12.90
2019-05-29T23:14:24.766Z,12.80
2019-05-29T23:24:30.095Z,12.60
2019-05-29T23:34:35.439Z,12.40
2019-05-29T23:44:41.262Z,12.30
2019-05-29T23:54:46.663Z,12.20
